• Join FlightAware (Why Join?)
  • Login
  • US Flag 
05:59PM EDT


 

Airport Tracker/Info


-or-


 

Live Flight TrackerFlight Track Log ✈ SWA2339 ✈ 21-Apr-2013 ✈ KBWI - KSDF

Flight Track Log - Related Links

Times and Time Zones

All times are in EDT time to prevent confusion due to time zone crossing. See the SWA2339 flight status page for this flight to view local times or setup timezone preferences in your user account.

Time Position Orientation Groundspeed Altitude Reporting Facility
EDT Latitude Longitude Course Direction KTS MPH feet Rate Location/Type
08:27AM 39.1667 -76.7333 211° Southwest 179 206 2,500  Level Potomac TRACON
08:28AM 39.1833 -76.8000 288° West 220 253 5,300 3,780 Climbing Potomac TRACON
08:29AM 39.2000 -76.8833 284° West 253 291 9,700 3,600 Climbing Potomac TRACON
08:31AM 39.2106 -77.0917 274° West 292 336 16,400 3,060 Climbing Washington Center
08:32AM 39.1675 -77.1953 242° Southwest 312 359 19,300 3,000 Climbing Washington Center
08:33AM 39.1248 -77.2123 211° Southwest  Level FlightAware Approximate
08:33AM 39.0850 -77.2708 215° Southwest 332 382 22,500  Level Washington Center
08:34AM 39.0500 -77.3958 250° West 347 399 23,000 1,080 Climbing Washington Center
08:35AM 39.0189 -77.5206 252° West 361 415 24,700 1,980 Climbing Washington Center
08:36AM 38.9872 -77.6614 254° West 367 422 27,000 1,920 Climbing Washington Center
08:37AM 38.9558 -77.7886 252° West 378 435 28,600 2,040 Climbing Washington Center
08:38AM 38.9242 -77.9211 253° West 378 435 31,100 2,460 Climbing Washington Center
08:39AM 38.8947 -78.0428 253° West 378 435 33,600 2,040 Climbing Washington Center
08:40AM 38.8628 -78.1722 252° West 373 429 35,200 1,560 Climbing Washington Center
08:41AM 38.8536 -78.3053 265° West 378 435 36,800 1,320 Climbing Washington Center
08:42AM 38.8572 -78.4147 272° West 378 435 37,900 1,200 Climbing Washington Center
08:43AM 38.8514 -78.5797 267° West 385 443 39,200 1,020 Climbing Washington Center
08:44AM 38.8497 -78.7183 269° West 385 443 40,000 360 Climbing Washington Center
08:45AM 38.8481 -78.8622 269° West 391 450 40,000  Level Washington Center
08:46AM 38.8464 -79.0008 269° West 396 456 40,000  Level Washington Center
08:47AM 38.8444 -79.1419 269° West 401 461 40,000  Level Washington Center
08:48AM 38.8256 -79.2797 260° West 401 461 40,000  Level Washington Center
08:49AM 38.8047 -79.4144 259° West 401 461 40,000  Level Washington Center
08:50AM 38.7844 -79.5225 256° West 401 461 40,000  Level Washington Center
08:51AM 38.7564 -79.6808 257° West 406 467 40,000  Level Washington Center
08:52AM 38.7308 -79.8125 256° West 401 461 40,000  Level Washington Center
08:53AM 38.7047 -79.9628 257° West 395 455 40,000  Level Washington Center
08:54AM 38.6789 -80.0967 256° West 395 455 40,000  Level Washington Center
08:55AM 38.6628 -80.1747 255° West 391 450 40,000  Level Indianapolis Center
08:56AM 38.6378 -80.3097 257° West 390 449 40,000  Level Indianapolis Center
08:57AM 38.6114 -80.4442 256° West 388 447 40,000  Level Indianapolis Center
08:58AM 38.5847 -80.5794 256° West 390 449 40,000  Level Indianapolis Center
08:59AM 38.5592 -80.7131 256° West 388 447 40,000  Level Indianapolis Center
09:00AM 38.5331 -80.8483 256° West 391 450 40,000  Level Indianapolis Center
09:01AM 38.5011 -81.0106 256° West 390 449 40,000  Level Indianapolis Center
09:02AM 38.4739 -81.1467 256° West 393 452 40,000  Level Indianapolis Center
09:03AM 38.4472 -81.2839 256° West 394 453 40,000  Level Indianapolis Center
09:04AM 38.4194 -81.4219 256° West 396 456 40,000 -300 Level Indianapolis Center
09:05AM 38.3925 -81.5592 256° West 394 453 39,500 -720 Descending Indianapolis Center
09:06AM 38.3650 -81.6939 255° West 390 449 38,600 -960 Descending Indianapolis Center
09:07AM 38.3356 -81.8258 254° West 387 445 37,600 -960 Descending Indianapolis Center
09:08AM 38.2989 -81.9539 250° West 384 442 36,700 -960 Descending Indianapolis Center
09:09AM 38.2633 -82.0806 250° West 379 436 35,700 -1,080 Descending Indianapolis Center
09:10AM 38.2272 -82.2064 250° West 377 434 34,600 -1,020 Descending Indianapolis Center
09:11AM 38.1908 -82.3381 251° West 389 448 33,700 -960 Descending Indianapolis Center
09:12AM 38.1536 -82.4672 250° West 388 447 32,700 -840 Descending Indianapolis Center
09:14AM 38.1119 -82.6111 250° West 390 449 32,000 -360 Descending Indianapolis Center
09:15AM 38.0758 -82.7383 250° West 385 443 32,000  Level Indianapolis Center
09:16AM 38.0381 -82.8675 250° West 389 448 32,000  Level Indianapolis Center
09:17AM 38.0003 -82.9953 249° West 387 445 32,000  Level Indianapolis Center
09:18AM 37.9633 -83.1247 250° West 389 448 32,000  Level Indianapolis Center
09:19AM 37.9181 -83.2750 249° West 392 451 32,000  Level Indianapolis Center
09:20AM 37.8806 -83.4039 250° West 392 451 32,000  Level Indianapolis Center
09:21AM 37.8419 -83.5328 249° West 392 451 32,000 -240 Level Indianapolis Center
09:22AM 37.8028 -83.6614 249° West 392 451 31,600 -780 Descending Indianapolis Center
09:23AM 37.7656 -83.7869 249° West 381 438 30,500 -1,140 Descending Indianapolis Center
09:24AM 37.7314 -83.9031 250° West 357 411 29,400 -1,500 Descending Indianapolis Center
09:25AM 37.6967 -84.0158 249° West 346 398 27,500 -2,040 Descending Indianapolis Center
09:26AM 37.6578 -84.1458 249° West 341 392 25,300 -2,040 Descending Indianapolis Center
09:27AM 37.6233 -84.2572 249° West 343 395 23,400 -1,740 Descending Indianapolis Center
09:28AM 37.5894 -84.3667 249° West 336 387 21,800 -1,860 Descending Indianapolis Center
09:29AM 37.5717 -84.4744 258° West 329 379 19,700 -1,980 Descending Indianapolis Center
09:30AM 37.5911 -84.5883 282° West 331 381 17,800 -1,860 Descending Indianapolis Center
09:31AM 37.6100 -84.6992 282° West 324 373 15,900 -1,440 Descending Indianapolis Center
09:32AM 37.6294 -84.8094 283° West 322 371 14,900 -1,080 Descending Indianapolis Center
09:33AM 37.6506 -84.9358 282° West 316 364 13,700 -1,500 Descending Indianapolis Center
09:34AM 37.7011 -85.0219 307° West 308 354 11,900 -1,800 Descending Indianapolis Center
09:35AM 37.7600 -85.1014 313° West 307 353 10,100 -960 Descending Indianapolis Center
09:36AM 37.8167 -85.1778 313° West 301 346 10,000 -360 Descending Indianapolis Center
09:37AM 37.8778 -85.2622 313° West 288 331 9,400 -780 Descending FAA TRACON SMA TRACON (SMA)
09:37AM 37.8939 -85.2850 312° West 283 326 9,000 -1,380 Descending FAA TRACON SMA TRACON (SMA)
09:38AM 37.9103 -85.3069 313° West 278 320 8,500 -1,500 Descending FAA TRACON SMA TRACON (SMA)
09:38AM 37.9258 -85.3294 311° West 277 319 8,000 -1,800 Descending FAA TRACON SMA TRACON (SMA)
09:38AM 37.9461 -85.3567 313° West 277 319 7,300 -1,800 Descending FAA TRACON SMA TRACON (SMA)
09:39AM 37.9622 -85.3786 313° West 277 319 6,800 -1,440 Descending FAA TRACON SMA TRACON (SMA)
09:39AM 37.9778 -85.4014 311° West 277 319 6,400 -1,500 Descending FAA TRACON SMA TRACON (SMA)
09:39AM 37.9975 -85.4283 313° West 272 313 5,800 -1,380 Descending FAA TRACON SMA TRACON (SMA)
09:40AM 38.0122 -85.4506 310° West 269 310 5,500 -1,080 Descending FAA TRACON SMA TRACON (SMA)
09:40AM 38.0308 -85.4767 312° West 261 300 5,100 -1,080 Descending FAA TRACON SMA TRACON (SMA)
09:40AM 38.0464 -85.4972 314° West 260 299 4,800 -960 Descending FAA TRACON SMA TRACON (SMA)
09:41AM 38.0614 -85.5186 312° West 263 303 4,500 -1,080 Descending FAA TRACON SMA TRACON (SMA)
09:41AM 38.0806 -85.5453 312° West 265 305 4,100 -780 Descending FAA TRACON SMA TRACON (SMA)
09:41AM 38.0956 -85.5664 312° West 265 305 4,000 -180 Descending FAA TRACON SMA TRACON (SMA)
09:42AM 38.1106 -85.5878 312° West 264 304 4,000  Level FAA TRACON SMA TRACON (SMA)
09:42AM 38.1294 -85.6017 330° Northwest 262 302 4,000  Level FAA TRACON SMA TRACON (SMA)
09:42AM 38.1553 -85.6142 339° North 258 297 4,000  Level FAA TRACON SMA TRACON (SMA)
09:43AM 38.1761 -85.6239 340° North 257 296 4,000  Level FAA TRACON SMA TRACON (SMA)
09:43AM 38.2006 -85.6350 340° North 246 283 4,000  Level FAA TRACON SMA TRACON (SMA)
09:43AM 38.2192 -85.6442 339° North 232 267 4,000  Level FAA TRACON SMA TRACON (SMA)
09:44AM 38.2372 -85.6528 339° North 225 259 4,000  Level FAA TRACON SMA TRACON (SMA)
09:44AM 38.2594 -85.6639 339° North 223 257 4,000  Level FAA TRACON SMA TRACON (SMA)
09:44AM 38.2764 -85.6725 338° Northwest 216 249 4,000  Level FAA TRACON SMA TRACON (SMA)
09:45AM 38.2903 -85.6833 329° Northwest 205 236 4,000 -600 Level FAA TRACON SMA TRACON (SMA)
09:45AM 38.2922 -85.7089 276° West 207 238 3,600 -1,500 Descending FAA TRACON SMA TRACON (SMA)
09:45AM 38.2878 -85.7294 255° West 197 227 3,000 -1,680 Descending FAA TRACON SMA TRACON (SMA)
09:46AM 38.2789 -85.7533 245° Southwest 201 231 2,500 -1,080 Descending FAA TRACON SMA TRACON (SMA)
09:46AM 38.2653 -85.7581 195° South 190 219 2,300 -660 Descending FAA TRACON SMA TRACON (SMA)
09:46AM 38.2531 -85.7550 169° South 157 181 2,100 -900 Descending FAA TRACON SMA TRACON (SMA)
09:47AM 38.2394 -85.7497 163° South 132 152 1,700 -900 Descending FAA TRACON SMA TRACON (SMA)
09:47AM 38.2289 -85.7453 162° South 129 148 1,500 -780 Descending FAA TRACON SMA TRACON (SMA)
09:47AM 38.2175 -85.7419 167° South 133 153 1,200 -900 Descending FAA TRACON SMA TRACON (SMA)
09:48AM 38.2039 -85.7369 164° South 133 153 900 -780 Descending FAA TRACON SMA TRACON (SMA)
09:48AM 38.1933 -85.7331 164° South 132 152 700 -600 Descending FAA TRACON SMA TRACON (SMA)